sensor_id;sensor_type;location;lat;lon;timestamp;P1;durP1;ratioP1;P2;durP2;ratioP2
76727;SDS011;65652;53.132;18.026;2022-12-10T00:01:20;55.10;;;21.00;;
76727;SDS011;65652;53.132;18.026;2022-12-10T00:03:48;60.90;;;21.40;;
76727;SDS011;65652;53.132;18.026;2022-12-10T00:06:17;53.40;;;19.90;;
76727;SDS011;65652;53.132;18.026;2022-12-10T00:08:48;61.20;;;22.00;;
76727;SDS011;65652;53.132;18.026;2022-12-10T00:11:17;56.00;;;21.60;;
76727;SDS011;65652;53.132;18.026;2022-12-10T00:13:45;56.90;;;21.20;;
76727;SDS011;65652;53.132;18.026;2022-12-10T00:16:14;58.00;;;19.70;;
76727;SDS011;65652;53.132;18.026;2022-12-10T00:18:43;60.90;;;20.90;;
76727;SDS011;65652;53.132;18.026;2022-12-10T00:21:14;60.50;;;20.80;;
76727;SDS011;65652;53.132;18.026;2022-12-10T00:23:43;56.50;;;20.40;;
76727;SDS011;65652;53.132;18.026;2022-12-10T00:26:12;63.80;;;21.40;;
76727;SDS011;65652;53.132;18.026;2022-12-10T00:28:44;56.20;;;21.90;;
76727;SDS011;65652;53.132;18.026;2022-12-10T00:31:13;60.80;;;22.00;;
76727;SDS011;65652;53.132;18.026;2022-12-10T00:33:45;54.70;;;20.50;;
76727;SDS011;65652;53.132;18.026;2022-12-10T00:36:14;56.00;;;21.00;;
76727;SDS011;65652;53.132;18.026;2022-12-10T00:38:43;56.50;;;21.40;;
76727;SDS011;65652;53.132;18.026;2022-12-10T00:41:10;53.60;;;19.70;;
76727;SDS011;65652;53.132;18.026;2022-12-10T00:43:38;57.30;;;21.00;;
76727;SDS011;65652;53.132;18.026;2022-12-10T00:46:05;54.70;;;21.40;;
76727;SDS011;65652;53.132;18.026;2022-12-10T00:48:33;56.60;;;20.30;;
76727;SDS011;65652;53.132;18.026;2022-12-10T00:51:08;53.80;;;20.20;;
76727;SDS011;65652;53.132;18.026;2022-12-10T00:53:37;57.10;;;20.40;;
76727;SDS011;65652;53.132;18.026;2022-12-10T00:56:07;57.30;;;20.90;;
76727;SDS011;65652;53.132;18.026;2022-12-10T00:58:36;59.40;;;20.30;;
76727;SDS011;65652;53.132;18.026;2022-12-10T01:04:12;56.80;;;20.20;;
76727;SDS011;65652;53.132;18.026;2022-12-10T01:06:51;53.00;;;20.30;;
76727;SDS011;65652;53.132;18.026;2022-12-10T01:09:28;48.80;;;20.00;;
76727;SDS011;65652;53.132;18.026;2022-12-10T01:11:57;48.50;;;19.80;;
76727;SDS011;65652;53.132;18.026;2022-12-10T01:14:29;46.80;;;19.20;;
76727;SDS011;65652;53.132;18.026;2022-12-10T01:16:59;49.90;;;19.40;;
76727;SDS011;65652;53.132;18.026;2022-12-10T01:19:29;54.20;;;19.30;;
76727;SDS011;65652;53.132;18.026;2022-12-10T01:21:57;53.40;;;18.90;;
76727;SDS011;65652;53.132;18.026;2022-12-10T01:24:25;45.90;;;17.70;;
76727;SDS011;65652;53.132;18.026;2022-12-10T01:26:53;46.90;;;17.50;;
76727;SDS011;65652;53.132;18.026;2022-12-10T01:29:21;50.70;;;18.70;;
76727;SDS011;65652;53.132;18.026;2022-12-10T01:31:52;54.80;;;20.30;;
76727;SDS011;65652;53.132;18.026;2022-12-10T01:34:20;51.60;;;18.80;;
76727;SDS011;65652;53.132;18.026;2022-12-10T01:36:48;49.90;;;18.60;;
76727;SDS011;65652;53.132;18.026;2022-12-10T01:39:18;48.60;;;17.20;;
76727;SDS011;65652;53.132;18.026;2022-12-10T01:46:45;46.90;;;17.10;;
76727;SDS011;65652;53.132;18.026;2022-12-10T01:49:14;46.60;;;17.20;;
76727;SDS011;65652;53.132;18.026;2022-12-10T01:51:48;47.10;;;18.00;;
76727;SDS011;65652;53.132;18.026;2022-12-10T01:54:19;42.20;;;16.30;;
76727;SDS011;65652;53.132;18.026;2022-12-10T01:59:54;43.20;;;16.30;;
76727;SDS011;65652;53.132;18.026;2022-12-10T02:05:32;47.30;;;16.70;;
76727;SDS011;65652;53.132;18.026;2022-12-10T02:11:16;45.10;;;17.50;;
76727;SDS011;65652;53.132;18.026;2022-12-10T02:17:02;43.90;;;16.80;;
76727;SDS011;65652;53.132;18.026;2022-12-10T02:19:44;44.20;;;16.50;;
76727;SDS011;65652;53.132;18.026;2022-12-10T02:22:15;48.50;;;17.10;;
76727;SDS011;65652;53.132;18.026;2022-12-10T02:24:46;42.70;;;15.90;;
76727;SDS011;65652;53.132;18.026;2022-12-10T02:27:32;41.50;;;16.60;;
76727;SDS011;65652;53.132;18.026;2022-12-10T02:30:14;39.50;;;16.10;;
76727;SDS011;65652;53.132;18.026;2022-12-10T02:32:41;37.50;;;15.10;;
76727;SDS011;65652;53.132;18.026;2022-12-10T02:35:16;38.00;;;16.30;;
76727;SDS011;65652;53.132;18.026;2022-12-10T02:37:48;41.00;;;15.10;;
76727;SDS011;65652;53.132;18.026;2022-12-10T02:40:25;35.10;;;13.60;;
76727;SDS011;65652;53.132;18.026;2022-12-10T02:42:57;39.40;;;15.80;;
76727;SDS011;65652;53.132;18.026;2022-12-10T02:45:26;39.30;;;14.20;;
76727;SDS011;65652;53.132;18.026;2022-12-10T02:47:56;43.20;;;15.20;;
76727;SDS011;65652;53.132;18.026;2022-12-10T02:50:25;40.00;;;14.40;;
76727;SDS011;65652;53.132;18.026;2022-12-10T02:52:52;36.30;;;14.60;;
76727;SDS011;65652;53.132;18.026;2022-12-10T02:55:19;35.40;;;14.40;;
76727;SDS011;65652;53.132;18.026;2022-12-10T03:00:39;38.50;;;14.50;;
76727;SDS011;65652;53.132;18.026;2022-12-10T03:03:22;35.80;;;14.10;;
76727;SDS011;65652;53.132;18.026;2022-12-10T03:13:40;36.20;;;13.50;;
76727;SDS011;65652;53.132;18.026;2022-12-10T03:16:10;33.90;;;13.90;;
76727;SDS011;65652;53.132;18.026;2022-12-10T03:18:37;38.50;;;14.80;;
76727;SDS011;65652;53.132;18.026;2022-12-10T03:21:05;32.70;;;13.80;;
76727;SDS011;65652;53.132;18.026;2022-12-10T03:23:34;38.30;;;13.30;;
76727;SDS011;65652;53.132;18.026;2022-12-10T03:26:04;41.50;;;15.10;;
76727;SDS011;65652;53.132;18.026;2022-12-10T03:28:32;38.30;;;13.40;;
76727;SDS011;65652;53.132;18.026;2022-12-10T03:31:04;37.60;;;13.70;;
76727;SDS011;65652;53.132;18.026;2022-12-10T03:33:32;39.00;;;14.60;;
76727;SDS011;65652;53.132;18.026;2022-12-10T03:35:59;31.90;;;12.50;;
76727;SDS011;65652;53.132;18.026;2022-12-10T03:38:26;34.30;;;14.00;;
76727;SDS011;65652;53.132;18.026;2022-12-10T03:40:53;32.30;;;13.10;;
76727;SDS011;65652;53.132;18.026;2022-12-10T03:43:21;30.10;;;12.20;;
76727;SDS011;65652;53.132;18.026;2022-12-10T03:45:48;33.80;;;13.10;;
76727;SDS011;65652;53.132;18.026;2022-12-10T03:48:15;30.60;;;11.60;;
76727;SDS011;65652;53.132;18.026;2022-12-10T03:50:42;34.60;;;13.50;;
76727;SDS011;65652;53.132;18.026;2022-12-10T03:53:09;34.10;;;13.00;;
76727;SDS011;65652;53.132;18.026;2022-12-10T03:55:35;30.70;;;11.60;;
76727;SDS011;65652;53.132;18.026;2022-12-10T03:58:02;34.60;;;13.10;;
76727;SDS011;65652;53.132;18.026;2022-12-10T04:00:29;32.00;;;12.50;;
76727;SDS011;65652;53.132;18.026;2022-12-10T04:02:56;37.30;;;13.00;;
76727;SDS011;65652;53.132;18.026;2022-12-10T04:05:23;34.70;;;12.80;;
76727;SDS011;65652;53.132;18.026;2022-12-10T04:07:49;31.60;;;12.40;;
76727;SDS011;65652;53.132;18.026;2022-12-10T04:10:17;32.30;;;11.80;;
76727;SDS011;65652;53.132;18.026;2022-12-10T04:12:44;32.80;;;12.60;;
76727;SDS011;65652;53.132;18.026;2022-12-10T04:15:31;31.50;;;13.40;;
76727;SDS011;65652;53.132;18.026;2022-12-10T04:18:16;31.60;;;12.40;;
76727;SDS011;65652;53.132;18.026;2022-12-10T04:20:43;29.30;;;12.60;;
76727;SDS011;65652;53.132;18.026;2022-12-10T04:23:28;30.90;;;12.80;;
76727;SDS011;65652;53.132;18.026;2022-12-10T04:26:13;28.90;;;12.00;;
76727;SDS011;65652;53.132;18.026;2022-12-10T04:28:59;30.50;;;12.00;;
76727;SDS011;65652;53.132;18.026;2022-12-10T04:31:26;31.10;;;11.90;;
76727;SDS011;65652;53.132;18.026;2022-12-10T04:33:53;35.20;;;13.80;;
76727;SDS011;65652;53.132;18.026;2022-12-10T04:36:19;36.20;;;13.60;;
76727;SDS011;65652;53.132;18.026;2022-12-10T04:38:46;35.70;;;13.40;;
76727;SDS011;65652;53.132;18.026;2022-12-10T04:41:13;36.60;;;13.70;;
76727;SDS011;65652;53.132;18.026;2022-12-10T04:43:42;32.10;;;12.10;;
76727;SDS011;65652;53.132;18.026;2022-12-10T04:46:09;33.90;;;12.90;;
76727;SDS011;65652;53.132;18.026;2022-12-10T04:48:36;35.00;;;13.60;;
76727;SDS011;65652;53.132;18.026;2022-12-10T04:51:03;33.70;;;13.80;;
76727;SDS011;65652;53.132;18.026;2022-12-10T04:53:30;30.90;;;12.10;;
76727;SDS011;65652;53.132;18.026;2022-12-10T04:55:57;30.40;;;12.20;;
76727;SDS011;65652;53.132;18.026;2022-12-10T04:58:24;31.30;;;12.80;;
76727;SDS011;65652;53.132;18.026;2022-12-10T05:00:50;35.10;;;13.70;;
76727;SDS011;65652;53.132;18.026;2022-12-10T05:03:17;32.50;;;13.30;;
76727;SDS011;65652;53.132;18.026;2022-12-10T05:05:44;30.50;;;13.00;;
76727;SDS011;65652;53.132;18.026;2022-12-10T05:08:11;35.40;;;14.10;;
76727;SDS011;65652;53.132;18.026;2022-12-10T05:10:37;31.30;;;12.90;;
76727;SDS011;65652;53.132;18.026;2022-12-10T05:13:04;38.40;;;13.70;;
76727;SDS011;65652;53.132;18.026;2022-12-10T05:15:31;36.70;;;14.20;;
76727;SDS011;65652;53.132;18.026;2022-12-10T05:17:58;32.10;;;12.80;;
76727;SDS011;65652;53.132;18.026;2022-12-10T05:20:25;30.70;;;13.10;;
76727;SDS011;65652;53.132;18.026;2022-12-10T05:22:52;31.20;;;13.60;;
76727;SDS011;65652;53.132;18.026;2022-12-10T05:25:37;36.30;;;14.20;;
76727;SDS011;65652;53.132;18.026;2022-12-10T05:28:21;37.20;;;14.10;;
76727;SDS011;65652;53.132;18.026;2022-12-10T05:30:48;32.50;;;13.40;;
76727;SDS011;65652;53.132;18.026;2022-12-10T05:33:16;35.20;;;14.20;;
76727;SDS011;65652;53.132;18.026;2022-12-10T05:35:42;35.40;;;13.70;;
76727;SDS011;65652;53.132;18.026;2022-12-10T05:38:09;32.30;;;13.20;;
76727;SDS011;65652;53.132;18.026;2022-12-10T05:40:36;33.00;;;12.90;;
76727;SDS011;65652;53.132;18.026;2022-12-10T05:43:03;38.10;;;14.30;;
76727;SDS011;65652;53.132;18.026;2022-12-10T05:45:33;35.60;;;14.40;;
76727;SDS011;65652;53.132;18.026;2022-12-10T05:48:00;33.40;;;13.00;;
76727;SDS011;65652;53.132;18.026;2022-12-10T05:50:27;32.70;;;12.30;;
76727;SDS011;65652;53.132;18.026;2022-12-10T05:52:54;30.80;;;12.60;;
76727;SDS011;65652;53.132;18.026;2022-12-10T05:55:21;29.00;;;12.30;;
76727;SDS011;65652;53.132;18.026;2022-12-10T05:57:47;31.00;;;12.50;;
76727;SDS011;65652;53.132;18.026;2022-12-10T06:00:14;29.10;;;12.00;;
76727;SDS011;65652;53.132;18.026;2022-12-10T06:02:42;29.90;;;11.50;;
76727;SDS011;65652;53.132;18.026;2022-12-10T06:05:09;29.50;;;11.90;;
76727;SDS011;65652;53.132;18.026;2022-12-10T06:07:36;32.20;;;13.70;;
76727;SDS011;65652;53.132;18.026;2022-12-10T06:10:03;38.40;;;14.80;;
76727;SDS011;65652;53.132;18.026;2022-12-10T06:12:30;33.30;;;13.20;;
76727;SDS011;65652;53.132;18.026;2022-12-10T06:14:57;32.50;;;13.60;;
76727;SDS011;65652;53.132;18.026;2022-12-10T06:17:24;35.20;;;13.80;;
76727;SDS011;65652;53.132;18.026;2022-12-10T06:19:50;34.40;;;13.20;;
76727;SDS011;65652;53.132;18.026;2022-12-10T06:22:17;33.30;;;12.70;;
76727;SDS011;65652;53.132;18.026;2022-12-10T06:24:44;29.20;;;12.50;;
76727;SDS011;65652;53.132;18.026;2022-12-10T06:27:11;28.30;;;11.60;;
76727;SDS011;65652;53.132;18.026;2022-12-10T06:29:38;28.80;;;11.40;;
76727;SDS011;65652;53.132;18.026;2022-12-10T06:32:04;27.80;;;11.70;;
76727;SDS011;65652;53.132;18.026;2022-12-10T06:34:31;32.50;;;12.20;;
76727;SDS011;65652;53.132;18.026;2022-12-10T06:36:58;29.00;;;11.50;;
76727;SDS011;65652;53.132;18.026;2022-12-10T06:39:25;30.80;;;11.90;;
76727;SDS011;65652;53.132;18.026;2022-12-10T06:41:52;31.60;;;12.00;;
76727;SDS011;65652;53.132;18.026;2022-12-10T06:44:18;29.10;;;11.70;;
76727;SDS011;65652;53.132;18.026;2022-12-10T06:46:45;25.00;;;10.30;;
76727;SDS011;65652;53.132;18.026;2022-12-10T06:49:12;27.60;;;11.70;;
76727;SDS011;65652;53.132;18.026;2022-12-10T06:51:39;31.20;;;13.00;;
76727;SDS011;65652;53.132;18.026;2022-12-10T06:54:05;34.00;;;12.00;;
76727;SDS011;65652;53.132;18.026;2022-12-10T06:56:32;29.70;;;11.70;;
76727;SDS011;65652;53.132;18.026;2022-12-10T06:58:59;31.60;;;12.50;;
76727;SDS011;65652;53.132;18.026;2022-12-10T07:01:26;30.30;;;12.80;;
76727;SDS011;65652;53.132;18.026;2022-12-10T07:03:53;30.30;;;12.10;;
76727;SDS011;65652;53.132;18.026;2022-12-10T07:06:22;32.30;;;13.20;;
76727;SDS011;65652;53.132;18.026;2022-12-10T07:08:50;30.20;;;13.40;;
76727;SDS011;65652;53.132;18.026;2022-12-10T07:11:19;32.00;;;12.20;;
76727;SDS011;65652;53.132;18.026;2022-12-10T07:13:47;31.40;;;13.20;;
76727;SDS011;65652;53.132;18.026;2022-12-10T07:16:18;33.00;;;13.40;;
76727;SDS011;65652;53.132;18.026;2022-12-10T07:18:47;30.60;;;12.30;;
76727;SDS011;65652;53.132;18.026;2022-12-10T07:24:17;34.70;;;13.40;;
76727;SDS011;65652;53.132;18.026;2022-12-10T07:26:45;37.90;;;14.10;;
76727;SDS011;65652;53.132;18.026;2022-12-10T07:29:14;34.90;;;13.20;;
76727;SDS011;65652;53.132;18.026;2022-12-10T07:31:44;32.80;;;13.10;;
76727;SDS011;65652;53.132;18.026;2022-12-10T07:34:12;33.90;;;13.20;;
76727;SDS011;65652;53.132;18.026;2022-12-10T07:36:39;34.30;;;13.70;;
76727;SDS011;65652;53.132;18.026;2022-12-10T07:39:06;33.10;;;14.50;;
76727;SDS011;65652;53.132;18.026;2022-12-10T07:41:35;32.10;;;14.10;;
76727;SDS011;65652;53.132;18.026;2022-12-10T07:44:03;30.40;;;12.90;;
76727;SDS011;65652;53.132;18.026;2022-12-10T07:46:33;31.20;;;13.70;;
76727;SDS011;65652;53.132;18.026;2022-12-10T07:49:00;32.80;;;12.70;;
76727;SDS011;65652;53.132;18.026;2022-12-10T07:51:29;31.50;;;13.00;;
76727;SDS011;65652;53.132;18.026;2022-12-10T07:53:56;30.20;;;13.00;;
76727;SDS011;65652;53.132;18.026;2022-12-10T07:56:23;28.30;;;12.30;;
76727;SDS011;65652;53.132;18.026;2022-12-10T07:58:51;33.10;;;13.10;;
76727;SDS011;65652;53.132;18.026;2022-12-10T08:01:20;32.20;;;11.90;;
76727;SDS011;65652;53.132;18.026;2022-12-10T08:03:49;29.20;;;11.30;;
76727;SDS011;65652;53.132;18.026;2022-12-10T08:06:17;31.70;;;12.20;;
76727;SDS011;65652;53.132;18.026;2022-12-10T08:08:46;32.10;;;12.90;;
76727;SDS011;65652;53.132;18.026;2022-12-10T08:11:14;30.20;;;12.50;;
76727;SDS011;65652;53.132;18.026;2022-12-10T08:13:42;32.60;;;12.40;;
76727;SDS011;65652;53.132;18.026;2022-12-10T08:16:12;32.40;;;13.20;;
76727;SDS011;65652;53.132;18.026;2022-12-10T08:18:42;29.90;;;12.80;;
76727;SDS011;65652;53.132;18.026;2022-12-10T08:23:38;31.70;;;12.40;;
76727;SDS011;65652;53.132;18.026;2022-12-10T08:26:06;32.60;;;12.50;;
76727;SDS011;65652;53.132;18.026;2022-12-10T08:28:35;31.10;;;13.00;;
76727;SDS011;65652;53.132;18.026;2022-12-10T08:31:03;28.30;;;11.50;;
76727;SDS011;65652;53.132;18.026;2022-12-10T08:33:33;33.80;;;13.00;;
76727;SDS011;65652;53.132;18.026;2022-12-10T08:36:04;33.20;;;13.20;;
76727;SDS011;65652;53.132;18.026;2022-12-10T08:38:33;36.00;;;14.00;;
76727;SDS011;65652;53.132;18.026;2022-12-10T08:41:08;36.10;;;14.10;;
76727;SDS011;65652;53.132;18.026;2022-12-10T08:43:36;33.00;;;13.50;;
76727;SDS011;65652;53.132;18.026;2022-12-10T08:46:03;37.50;;;14.60;;
76727;SDS011;65652;53.132;18.026;2022-12-10T08:48:31;37.50;;;14.10;;
76727;SDS011;65652;53.132;18.026;2022-12-10T08:50:58;32.20;;;13.20;;
76727;SDS011;65652;53.132;18.026;2022-12-10T08:53:25;33.80;;;14.00;;
76727;SDS011;65652;53.132;18.026;2022-12-10T08:55:52;31.40;;;12.30;;
76727;SDS011;65652;53.132;18.026;2022-12-10T08:58:20;35.10;;;13.70;;
76727;SDS011;65652;53.132;18.026;2022-12-10T09:00:48;35.10;;;14.20;;
76727;SDS011;65652;53.132;18.026;2022-12-10T09:03:16;33.60;;;14.10;;
76727;SDS011;65652;53.132;18.026;2022-12-10T09:05:43;31.80;;;13.20;;
76727;SDS011;65652;53.132;18.026;2022-12-10T09:08:11;33.70;;;14.20;;
76727;SDS011;65652;53.132;18.026;2022-12-10T09:10:38;36.10;;;14.40;;
76727;SDS011;65652;53.132;18.026;2022-12-10T09:13:06;35.00;;;12.90;;
76727;SDS011;65652;53.132;18.026;2022-12-10T09:15:33;31.20;;;12.70;;
76727;SDS011;65652;53.132;18.026;2022-12-10T09:18:00;31.70;;;12.60;;
76727;SDS011;65652;53.132;18.026;2022-12-10T09:20:26;30.00;;;12.90;;
76727;SDS011;65652;53.132;18.026;2022-12-10T09:22:53;32.60;;;13.50;;
76727;SDS011;65652;53.132;18.026;2022-12-10T09:25:20;28.20;;;11.80;;
76727;SDS011;65652;53.132;18.026;2022-12-10T09:27:48;25.90;;;9.90;;
76727;SDS011;65652;53.132;18.026;2022-12-10T09:30:15;25.90;;;10.40;;
76727;SDS011;65652;53.132;18.026;2022-12-10T09:32:42;27.80;;;9.90;;
76727;SDS011;65652;53.132;18.026;2022-12-10T09:35:09;25.60;;;9.80;;
76727;SDS011;65652;53.132;18.026;2022-12-10T09:37:36;24.60;;;9.30;;
76727;SDS011;65652;53.132;18.026;2022-12-10T09:40:03;21.00;;;8.60;;
76727;SDS011;65652;53.132;18.026;2022-12-10T09:50:52;17.90;;;7.50;;
76727;SDS011;65652;53.132;18.026;2022-12-10T09:53:26;16.80;;;6.40;;
76727;SDS011;65652;53.132;18.026;2022-12-10T09:55:56;21.20;;;8.10;;
76727;SDS011;65652;53.132;18.026;2022-12-10T09:58:26;21.20;;;8.60;;
76727;SDS011;65652;53.132;18.026;2022-12-10T10:01:00;21.60;;;8.30;;
76727;SDS011;65652;53.132;18.026;2022-12-10T10:03:31;21.60;;;9.00;;
76727;SDS011;65652;53.132;18.026;2022-12-10T10:06:01;29.40;;;10.10;;
76727;SDS011;65652;53.132;18.026;2022-12-10T10:08:33;23.10;;;8.80;;
76727;SDS011;65652;53.132;18.026;2022-12-10T10:11:03;20.30;;;8.30;;
76727;SDS011;65652;53.132;18.026;2022-12-10T10:13:34;20.40;;;8.00;;
76727;SDS011;65652;53.132;18.026;2022-12-10T10:18:42;22.00;;;7.90;;
76727;SDS011;65652;53.132;18.026;2022-12-10T10:21:17;20.70;;;8.60;;
76727;SDS011;65652;53.132;18.026;2022-12-10T10:23:48;20.90;;;8.00;;
76727;SDS011;65652;53.132;18.026;2022-12-10T10:26:15;20.40;;;8.60;;
76727;SDS011;65652;53.132;18.026;2022-12-10T10:28:42;20.70;;;8.50;;
76727;SDS011;65652;53.132;18.026;2022-12-10T10:31:33;22.20;;;9.40;;
76727;SDS011;65652;53.132;18.026;2022-12-10T10:34:04;23.20;;;9.20;;
76727;SDS011;65652;53.132;18.026;2022-12-10T10:36:34;21.40;;;9.70;;
76727;SDS011;65652;53.132;18.026;2022-12-10T10:39:36;23.20;;;8.80;;
76727;SDS011;65652;53.132;18.026;2022-12-10T10:41:57;21.50;;;8.90;;
76727;SDS011;65652;53.132;18.026;2022-12-10T10:44:27;21.70;;;8.50;;
76727;SDS011;65652;53.132;18.026;2022-12-10T10:49:28;20.30;;;7.70;;
76727;SDS011;65652;53.132;18.026;2022-12-10T10:51:58;20.30;;;8.50;;
76727;SDS011;65652;53.132;18.026;2022-12-10T10:57:45;20.70;;;9.00;;
76727;SDS011;65652;53.132;18.026;2022-12-10T11:02:36;23.10;;;9.60;;
76727;SDS011;65652;53.132;18.026;2022-12-10T11:05:52;22.80;;;9.10;;
76727;SDS011;65652;53.132;18.026;2022-12-10T11:07:58;20.30;;;8.90;;
76727;SDS011;65652;53.132;18.026;2022-12-10T11:10:27;20.60;;;8.00;;
76727;SDS011;65652;53.132;18.026;2022-12-10T11:12:57;20.50;;;8.20;;
76727;SDS011;65652;53.132;18.026;2022-12-10T11:15:31;21.70;;;8.70;;
76727;SDS011;65652;53.132;18.026;2022-12-10T11:21:01;22.20;;;8.80;;
76727;SDS011;65652;53.132;18.026;2022-12-10T11:23:36;22.60;;;8.40;;
76727;SDS011;65652;53.132;18.026;2022-12-10T11:29:08;26.10;;;9.70;;
76727;SDS011;65652;53.132;18.026;2022-12-10T11:36:57;24.60;;;10.30;;
76727;SDS011;65652;53.132;18.026;2022-12-10T12:09:03;16.80;;;5.80;;
76727;SDS011;65652;53.132;18.026;2022-12-10T12:14:48;12.50;;;5.40;;
76727;SDS011;65652;53.132;18.026;2022-12-10T12:20:05;15.30;;;6.00;;
76727;SDS011;65652;53.132;18.026;2022-12-10T12:22:45;13.40;;;5.90;;
76727;SDS011;65652;53.132;18.026;2022-12-10T12:28:03;16.20;;;6.80;;
76727;SDS011;65652;53.132;18.026;2022-12-10T12:30:36;14.40;;;5.60;;
76727;SDS011;65652;53.132;18.026;2022-12-10T12:35:44;13.20;;;5.80;;
76727;SDS011;65652;53.132;18.026;2022-12-10T12:41:14;15.40;;;6.20;;
76727;SDS011;65652;53.132;18.026;2022-12-10T12:43:55;14.10;;;5.50;;
76727;SDS011;65652;53.132;18.026;2022-12-10T12:46:32;13.20;;;5.90;;
76727;SDS011;65652;53.132;18.026;2022-12-10T12:49:14;12.70;;;5.00;;
76727;SDS011;65652;53.132;18.026;2022-12-10T12:51:45;14.60;;;5.00;;
76727;SDS011;65652;53.132;18.026;2022-12-10T12:54:19;14.10;;;5.80;;
76727;SDS011;65652;53.132;18.026;2022-12-10T12:57:00;13.40;;;5.40;;
76727;SDS011;65652;53.132;18.026;2022-12-10T12:59:38;14.30;;;5.80;;
76727;SDS011;65652;53.132;18.026;2022-12-10T13:04:39;13.00;;;5.40;;
76727;SDS011;65652;53.132;18.026;2022-12-10T13:09:46;16.20;;;6.70;;
76727;SDS011;65652;53.132;18.026;2022-12-10T13:17:38;15.20;;;5.90;;
76727;SDS011;65652;53.132;18.026;2022-12-10T13:20:27;15.50;;;6.20;;
76727;SDS011;65652;53.132;18.026;2022-12-10T13:28:32;21.70;;;8.30;;
76727;SDS011;65652;53.132;18.026;2022-12-10T13:31:12;23.50;;;7.70;;
76727;SDS011;65652;53.132;18.026;2022-12-10T13:36:35;16.70;;;6.40;;
76727;SDS011;65652;53.132;18.026;2022-12-10T13:50:03;17.20;;;7.50;;
76727;SDS011;65652;53.132;18.026;2022-12-10T13:52:35;17.60;;;8.30;;
76727;SDS011;65652;53.132;18.026;2022-12-10T13:58:13;19.50;;;8.20;;
76727;SDS011;65652;53.132;18.026;2022-12-10T14:00:54;22.50;;;8.80;;
76727;SDS011;65652;53.132;18.026;2022-12-10T14:03:59;23.10;;;8.90;;
76727;SDS011;65652;53.132;18.026;2022-12-10T14:06:34;40.30;;;14.30;;
76727;SDS011;65652;53.132;18.026;2022-12-10T14:14:34;39.60;;;15.60;;
76727;SDS011;65652;53.132;18.026;2022-12-10T14:17:18;35.80;;;13.10;;
76727;SDS011;65652;53.132;18.026;2022-12-10T14:19:49;29.50;;;10.90;;
76727;SDS011;65652;53.132;18.026;2022-12-10T14:22:29;23.00;;;8.80;;
76727;SDS011;65652;53.132;18.026;2022-12-10T14:25:00;23.70;;;8.80;;
76727;SDS011;65652;53.132;18.026;2022-12-10T14:27:30;22.90;;;8.40;;
76727;SDS011;65652;53.132;18.026;2022-12-10T14:30:14;21.80;;;9.50;;
76727;SDS011;65652;53.132;18.026;2022-12-10T14:32:50;22.80;;;10.10;;
76727;SDS011;65652;53.132;18.026;2022-12-10T14:35:22;21.50;;;9.50;;
76727;SDS011;65652;53.132;18.026;2022-12-10T14:37:50;20.90;;;9.70;;
76727;SDS011;65652;53.132;18.026;2022-12-10T14:42:51;20.70;;;10.00;;
76727;SDS011;65652;53.132;18.026;2022-12-10T14:45:24;21.50;;;9.50;;
76727;SDS011;65652;53.132;18.026;2022-12-10T14:47:55;19.50;;;8.90;;
76727;SDS011;65652;53.132;18.026;2022-12-10T14:50:22;18.30;;;8.30;;
76727;SDS011;65652;53.132;18.026;2022-12-10T14:52:50;20.80;;;7.90;;
76727;SDS011;65652;53.132;18.026;2022-12-10T14:55:21;23.10;;;10.10;;
76727;SDS011;65652;53.132;18.026;2022-12-10T15:00:27;28.40;;;11.70;;
76727;SDS011;65652;53.132;18.026;2022-12-10T15:02:58;25.70;;;11.30;;
76727;SDS011;65652;53.132;18.026;2022-12-10T15:05:28;27.30;;;11.50;;
76727;SDS011;65652;53.132;18.026;2022-12-10T15:08:02;33.50;;;13.50;;
76727;SDS011;65652;53.132;18.026;2022-12-10T15:10:35;30.90;;;11.90;;
76727;SDS011;65652;53.132;18.026;2022-12-10T15:13:06;26.50;;;11.20;;
76727;SDS011;65652;53.132;18.026;2022-12-10T15:20:43;22.60;;;9.80;;
76727;SDS011;65652;53.132;18.026;2022-12-10T15:23:18;28.90;;;11.00;;
76727;SDS011;65652;53.132;18.026;2022-12-10T15:26:11;27.30;;;10.60;;
76727;SDS011;65652;53.132;18.026;2022-12-10T15:28:41;27.40;;;10.00;;
76727;SDS011;65652;53.132;18.026;2022-12-10T15:33:52;24.20;;;9.80;;
76727;SDS011;65652;53.132;18.026;2022-12-10T15:39:04;18.80;;;8.30;;
76727;SDS011;65652;53.132;18.026;2022-12-10T15:41:52;22.70;;;9.40;;
76727;SDS011;65652;53.132;18.026;2022-12-10T15:49:42;24.50;;;10.00;;
76727;SDS011;65652;53.132;18.026;2022-12-10T15:52:30;29.20;;;11.30;;
76727;SDS011;65652;53.132;18.026;2022-12-10T15:54:57;28.90;;;10.80;;
76727;SDS011;65652;53.132;18.026;2022-12-10T15:59:55;27.00;;;13.30;;
76727;SDS011;65652;53.132;18.026;2022-12-10T16:04:53;19.70;;;9.40;;
76727;SDS011;65652;53.132;18.026;2022-12-10T16:07:21;19.60;;;8.50;;
76727;SDS011;65652;53.132;18.026;2022-12-10T16:09:47;20.80;;;8.10;;
76727;SDS011;65652;53.132;18.026;2022-12-10T16:12:15;20.20;;;7.80;;
76727;SDS011;65652;53.132;18.026;2022-12-10T16:14:46;28.50;;;12.90;;
76727;SDS011;65652;53.132;18.026;2022-12-10T16:17:16;25.30;;;10.40;;
76727;SDS011;65652;53.132;18.026;2022-12-10T16:19:44;25.00;;;9.10;;
76727;SDS011;65652;53.132;18.026;2022-12-10T16:22:11;21.50;;;8.60;;
76727;SDS011;65652;53.132;18.026;2022-12-10T16:24:37;21.90;;;8.70;;
76727;SDS011;65652;53.132;18.026;2022-12-10T16:27:10;21.30;;;8.30;;
76727;SDS011;65652;53.132;18.026;2022-12-10T16:29:39;28.40;;;13.60;;
76727;SDS011;65652;53.132;18.026;2022-12-10T16:32:09;23.20;;;11.70;;
76727;SDS011;65652;53.132;18.026;2022-12-10T16:34:37;22.10;;;10.30;;
76727;SDS011;65652;53.132;18.026;2022-12-10T16:37:05;23.40;;;9.50;;
76727;SDS011;65652;53.132;18.026;2022-12-10T16:39:33;20.10;;;9.30;;
76727;SDS011;65652;53.132;18.026;2022-12-10T16:42:00;23.60;;;9.10;;
76727;SDS011;65652;53.132;18.026;2022-12-10T16:44:27;19.10;;;8.30;;
76727;SDS011;65652;53.132;18.026;2022-12-10T16:46:54;26.60;;;10.20;;
76727;SDS011;65652;53.132;18.026;2022-12-10T16:49:20;26.90;;;10.40;;
76727;SDS011;65652;53.132;18.026;2022-12-10T16:51:47;27.90;;;11.20;;
76727;SDS011;65652;53.132;18.026;2022-12-10T16:54:14;26.10;;;10.70;;
76727;SDS011;65652;53.132;18.026;2022-12-10T16:56:41;24.90;;;10.50;;
76727;SDS011;65652;53.132;18.026;2022-12-10T16:59:08;24.80;;;10.10;;
76727;SDS011;65652;53.132;18.026;2022-12-10T17:04:03;17.70;;;6.90;;
76727;SDS011;65652;53.132;18.026;2022-12-10T17:06:30;23.10;;;9.00;;
76727;SDS011;65652;53.132;18.026;2022-12-10T17:08:57;19.10;;;7.70;;
76727;SDS011;65652;53.132;18.026;2022-12-10T17:11:27;21.70;;;8.50;;
76727;SDS011;65652;53.132;18.026;2022-12-10T17:14:26;22.30;;;9.10;;
76727;SDS011;65652;53.132;18.026;2022-12-10T17:16:57;29.60;;;11.00;;
76727;SDS011;65652;53.132;18.026;2022-12-10T17:19:33;27.10;;;9.60;;
76727;SDS011;65652;53.132;18.026;2022-12-10T17:22:01;23.20;;;9.10;;
76727;SDS011;65652;53.132;18.026;2022-12-10T17:24:29;22.50;;;8.80;;
76727;SDS011;65652;53.132;18.026;2022-12-10T17:26:58;27.00;;;10.10;;
76727;SDS011;65652;53.132;18.026;2022-12-10T17:29:31;22.50;;;9.70;;